createdAt,value
2023-01-22T00:01:40.917Z,30.43
2023-01-22T00:04:11.940Z,31.83
2023-01-22T00:06:40.858Z,43.23
2023-01-22T00:09:10.996Z,28.13
2023-01-22T00:11:39.849Z,30.67
2023-01-22T00:14:11.657Z,31.17
2023-01-22T00:16:41.460Z,29.00
2023-01-22T00:19:12.211Z,31.13
2023-01-22T00:21:41.230Z,38.37
2023-01-22T00:24:10.297Z,33.47
2023-01-22T00:26:39.230Z,25.27
2023-01-22T00:29:08.518Z,36.93
2023-01-22T00:31:37.619Z,27.60
2023-01-22T00:34:06.979Z,28.03
2023-01-22T00:36:37.148Z,32.97
2023-01-22T00:39:06.330Z,29.83
2023-01-22T00:41:35.235Z,27.37
2023-01-22T00:44:04.304Z,26.90
2023-01-22T00:46:33.076Z,20.00
2023-01-22T00:49:03.790Z,29.20
2023-01-22T00:51:33.722Z,27.07
2023-01-22T00:54:04.333Z,30.00
2023-01-22T00:56:33.090Z,29.40
2023-01-22T00:59:07.892Z,25.53
2023-01-22T01:01:36.720Z,24.73
2023-01-22T01:04:11.134Z,27.63
2023-01-22T01:06:40.141Z,29.57
2023-01-22T01:09:13.134Z,25.37
2023-01-22T01:11:42.029Z,36.90
2023-01-22T01:14:11.071Z,27.63
2023-01-22T01:16:39.981Z,28.40
2023-01-22T01:19:11.028Z,28.43
2023-01-22T01:21:40.152Z,28.60
2023-01-22T01:24:11.550Z,17.53
2023-01-22T01:26:43.941Z,24.40
2023-01-22T01:29:15.820Z,28.17
2023-01-22T01:31:47.369Z,33.73
2023-01-22T01:34:16.445Z,25.37
2023-01-22T01:36:49.111Z,27.27
2023-01-22T01:39:20.282Z,26.30
2023-01-22T01:41:51.900Z,25.67
2023-01-22T01:44:27.478Z,24.57
2023-01-22T01:47:02.002Z,34.23
2023-01-22T01:49:36.606Z,27.63
2023-01-22T01:52:14.942Z,21.27
2023-01-22T01:54:50.253Z,26.23
2023-01-22T01:57:24.644Z,20.63
2023-01-22T01:59:57.671Z,26.23
2023-01-22T02:02:26.776Z,29.93
2023-01-22T02:04:55.965Z,28.00
2023-01-22T02:07:24.866Z,20.60
2023-01-22T02:09:55.652Z,35.50
2023-01-22T02:12:27.516Z,23.33
2023-01-22T02:14:57.187Z,28.53
2023-01-22T02:17:26.337Z,26.27
2023-01-22T02:19:55.751Z,27.20
2023-01-22T02:22:37.702Z,19.97
2023-01-22T02:25:07.894Z,21.03
2023-01-22T02:27:39.815Z,19.80
2023-01-22T02:30:10.187Z,22.27
2023-01-22T02:32:38.981Z,24.37
2023-01-22T02:35:10.875Z,26.17
2023-01-22T02:37:44.582Z,21.63
2023-01-22T02:40:16.698Z,31.83
2023-01-22T02:42:45.815Z,21.03
2023-01-22T02:45:19.911Z,26.07
2023-01-22T02:47:50.930Z,26.50
2023-01-22T02:50:20.644Z,24.43
2023-01-22T02:52:51.060Z,34.90
2023-01-22T02:55:21.170Z,21.97
2023-01-22T02:57:52.005Z,34.23
2023-01-22T03:00:21.625Z,26.67
2023-01-22T03:02:50.593Z,27.80
2023-01-22T03:05:22.092Z,27.20
2023-01-22T03:07:52.392Z,28.50
2023-01-22T03:10:22.103Z,24.23
2023-01-22T03:13:11.085Z,25.07
2023-01-22T03:16:00.181Z,15.50
2023-01-22T03:18:46.397Z,21.43
2023-01-22T03:21:20.384Z,28.60
2023-01-22T03:23:53.064Z,31.73
2023-01-22T03:26:23.556Z,23.37
2023-01-22T03:28:53.233Z,20.63
2023-01-22T03:31:22.327Z,29.77
2023-01-22T03:33:53.565Z,28.10
2023-01-22T03:36:22.573Z,28.17
2023-01-22T03:38:54.435Z,32.60
2023-01-22T03:41:23.334Z,32.23
2023-01-22T03:43:59.042Z,30.00
2023-01-22T03:46:31.005Z,28.53
2023-01-22T03:48:59.962Z,33.10
2023-01-22T03:51:29.384Z,28.97
2023-01-22T03:54:02.745Z,22.73
2023-01-22T03:56:33.179Z,30.33
2023-01-22T03:59:03.762Z,26.67
2023-01-22T04:01:35.745Z,27.67
2023-01-22T04:04:05.183Z,24.97
2023-01-22T04:06:36.039Z,28.50
2023-01-22T04:09:06.658Z,26.03
2023-01-22T04:11:38.918Z,21.13
2023-01-22T04:14:10.762Z,23.43
2023-01-22T04:16:39.531Z,20.57
2023-01-22T04:19:08.327Z,28.50
2023-01-22T04:21:39.800Z,22.27
2023-01-22T04:24:10.460Z,19.77
2023-01-22T04:26:39.403Z,19.87
2023-01-22T04:29:08.266Z,17.20
2023-01-22T04:31:37.130Z,20.40
2023-01-22T04:34:08.965Z,18.77
2023-01-22T04:36:37.705Z,20.20
2023-01-22T04:39:11.612Z,18.10
2023-01-22T04:41:44.381Z,22.70
2023-01-22T04:44:13.559Z,24.20
2023-01-22T04:46:42.432Z,24.37
2023-01-22T04:49:13.885Z,23.40
2023-01-22T04:51:45.988Z,23.57
2023-01-22T04:54:14.826Z,17.67
2023-01-22T04:56:47.237Z,28.90
2023-01-22T04:59:16.190Z,25.93
2023-01-22T05:01:56.738Z,17.23
2023-01-22T05:04:28.651Z,25.17
2023-01-22T05:06:57.731Z,17.73
2023-01-22T05:09:27.707Z,22.27
2023-01-22T05:11:58.315Z,22.73
2023-01-22T05:14:27.348Z,18.87
2023-01-22T05:16:57.379Z,23.20
2023-01-22T05:19:29.005Z,24.53
2023-01-22T05:22:00.620Z,28.07
2023-01-22T05:24:30.133Z,23.57
2023-01-22T05:27:00.334Z,18.87
2023-01-22T05:29:29.443Z,19.37
2023-01-22T05:31:59.531Z,19.30
2023-01-22T05:34:28.446Z,15.27
2023-01-22T05:36:57.863Z,22.67
2023-01-22T05:39:29.757Z,22.27
2023-01-22T05:42:01.826Z,24.93
2023-01-22T05:44:32.759Z,13.90
2023-01-22T05:47:02.571Z,22.43
2023-01-22T05:49:37.211Z,18.50
2023-01-22T05:52:06.788Z,15.60
2023-01-22T05:54:35.604Z,17.57
2023-01-22T05:57:06.213Z,13.40
2023-01-22T05:59:37.517Z,15.43
2023-01-22T06:02:09.419Z,18.93
2023-01-22T06:04:38.772Z,15.97
2023-01-22T06:07:08.944Z,14.63
2023-01-22T06:09:47.245Z,21.53
2023-01-22T06:12:18.682Z,16.83
2023-01-22T06:14:49.283Z,16.73
2023-01-22T06:17:18.539Z,16.43
2023-01-22T06:19:47.464Z,16.43
2023-01-22T06:22:19.343Z,16.80
2023-01-22T06:24:51.747Z,21.53
2023-01-22T06:27:22.444Z,30.10
2023-01-22T06:29:53.442Z,19.13
2023-01-22T06:32:24.935Z,14.37
2023-01-22T06:34:53.830Z,25.90
2023-01-22T06:37:24.695Z,21.07
2023-01-22T06:39:53.792Z,19.77
2023-01-22T06:42:23.977Z,16.70
2023-01-22T06:44:57.756Z,23.13
2023-01-22T06:47:27.048Z,16.80
2023-01-22T06:49:56.164Z,24.13
2023-01-22T06:52:27.892Z,30.87
2023-01-22T06:54:57.117Z,18.53
2023-01-22T06:57:30.268Z,24.17
2023-01-22T07:00:00.560Z,17.10
2023-01-22T07:02:29.474Z,14.60
2023-01-22T07:04:58.357Z,14.33
2023-01-22T07:07:27.690Z,13.97
2023-01-22T07:09:58.268Z,19.43
2023-01-22T07:12:27.224Z,12.77
2023-01-22T07:14:57.524Z,17.13
2023-01-22T07:17:28.237Z,18.03
2023-01-22T07:19:57.352Z,11.17
2023-01-22T07:22:26.208Z,16.17
2023-01-22T07:24:55.883Z,15.87
2023-01-22T07:27:24.947Z,18.33
2023-01-22T07:29:53.882Z,21.33
2023-01-22T07:32:26.853Z,23.60
2023-01-22T07:34:55.776Z,19.97
2023-01-22T07:37:24.729Z,17.20
2023-01-22T07:39:54.184Z,18.50
2023-01-22T07:42:23.261Z,15.70
2023-01-22T07:44:52.702Z,20.40
2023-01-22T07:47:23.673Z,13.43
2023-01-22T07:49:54.593Z,21.50
2023-01-22T07:52:27.703Z,15.93
2023-01-22T07:54:56.739Z,22.57
2023-01-22T07:57:26.059Z,24.97
2023-01-22T08:00:03.891Z,18.20
2023-01-22T08:02:32.854Z,15.57
2023-01-22T08:05:06.156Z,20.13
2023-01-22T08:07:35.384Z,19.40
2023-01-22T08:10:05.563Z,19.87
2023-01-22T08:12:36.708Z,10.53
2023-01-22T08:15:06.886Z,17.47
2023-01-22T08:17:37.859Z,20.23
2023-01-22T08:20:13.003Z,16.93
2023-01-22T08:22:42.307Z,16.07
2023-01-22T08:25:11.703Z,16.60
2023-01-22T08:27:41.870Z,20.57
2023-01-22T08:30:12.534Z,18.93
2023-01-22T08:32:42.078Z,18.13
2023-01-22T08:35:20.197Z,18.47
2023-01-22T08:37:49.159Z,17.20
2023-01-22T08:40:25.876Z,16.53
2023-01-22T08:42:56.950Z,20.37
2023-01-22T08:45:26.272Z,19.23
2023-01-22T08:47:59.489Z,19.87
2023-01-22T08:50:29.965Z,15.73
2023-01-22T08:52:58.993Z,22.60
2023-01-22T08:55:28.073Z,16.23
2023-01-22T08:57:57.588Z,21.17
2023-01-22T09:00:27.642Z,18.93
2023-01-22T09:02:59.831Z,22.17
2023-01-22T09:05:32.028Z,23.90
2023-01-22T09:08:00.633Z,16.23
2023-01-22T09:10:29.421Z,13.30
2023-01-22T09:13:00.140Z,16.80
2023-01-22T09:15:29.475Z,13.70
2023-01-22T09:18:00.321Z,18.40
2023-01-22T09:20:30.588Z,19.97
2023-01-22T09:22:59.325Z,20.87
2023-01-22T09:25:29.397Z,20.90
2023-01-22T09:28:01.945Z,24.37
2023-01-22T09:30:33.654Z,11.90
2023-01-22T09:33:02.559Z,19.17
2023-01-22T09:35:32.711Z,15.83
2023-01-22T09:38:03.793Z,14.93
2023-01-22T09:40:36.932Z,11.63
2023-01-22T09:43:07.430Z,20.47
2023-01-22T09:45:39.910Z,13.80
2023-01-22T09:48:15.270Z,13.57
2023-01-22T09:50:47.335Z,15.87
2023-01-22T09:53:19.038Z,18.03
2023-01-22T09:55:50.174Z,14.27
2023-01-22T09:58:23.186Z,15.37
2023-01-22T10:00:54.966Z,18.57
2023-01-22T10:03:29.844Z,13.77
2023-01-22T10:06:03.755Z,20.57
2023-01-22T10:08:35.136Z,15.23
2023-01-22T10:11:04.871Z,27.07
2023-01-22T10:13:35.870Z,18.73
2023-01-22T10:16:06.425Z,23.67
2023-01-22T10:18:41.393Z,17.67
2023-01-22T10:21:18.467Z,19.33
2023-01-22T10:23:48.346Z,22.70
2023-01-22T10:26:21.987Z,17.73
2023-01-22T10:28:52.776Z,21.07
2023-01-22T10:31:28.009Z,19.90
2023-01-22T10:34:00.928Z,20.47
2023-01-22T10:36:32.283Z,17.80
2023-01-22T10:39:06.599Z,17.07
2023-01-22T10:41:35.315Z,18.83
2023-01-22T10:44:17.912Z,17.47
2023-01-22T10:46:49.208Z,17.73
2023-01-22T10:49:20.599Z,19.50
2023-01-22T10:51:55.701Z,20.53
2023-01-22T10:54:29.994Z,29.00
2023-01-22T10:57:07.696Z,25.87
2023-01-22T10:59:36.730Z,22.43
2023-01-22T11:02:18.401Z,19.87
2023-01-22T11:04:47.184Z,18.50
2023-01-22T11:07:21.754Z,16.37
2023-01-22T11:09:56.234Z,15.87
2023-01-22T11:12:29.677Z,18.27
2023-01-22T11:15:05.879Z,19.70
2023-01-22T11:17:39.475Z,21.27
2023-01-22T11:20:18.388Z,21.87
2023-01-22T11:23:00.704Z,20.73
2023-01-22T11:25:36.763Z,20.87
2023-01-22T11:28:15.401Z,20.40
2023-01-22T11:31:00.309Z,19.87
2023-01-22T11:33:52.875Z,15.17
2023-01-22T11:36:26.890Z,14.80
2023-01-22T11:39:04.482Z,17.83
2023-01-22T11:41:55.623Z,19.50
2023-01-22T11:44:44.458Z,16.63
2023-01-22T11:47:36.220Z,24.50
2023-01-22T11:50:18.493Z,18.83
2023-01-22T11:52:52.327Z,27.30
2023-01-22T11:55:48.483Z,20.63
2023-01-22T11:58:26.316Z,23.97
2023-01-22T12:01:06.642Z,18.57
2023-01-22T12:04:15.452Z,21.43
2023-01-22T12:07:15.193Z,20.57
2023-01-22T12:09:51.910Z,30.93
2023-01-22T12:12:34.684Z,27.93
2023-01-22T12:15:15.735Z,31.07
2023-01-22T12:17:53.931Z,19.13
2023-01-22T12:20:55.670Z,26.20
2023-01-22T12:23:28.760Z,23.17
2023-01-22T12:26:03.216Z,16.47
2023-01-22T12:28:41.078Z,13.40
2023-01-22T12:31:15.921Z,16.70
2023-01-22T12:33:46.043Z,18.87
2023-01-22T12:36:20.783Z,17.40
2023-01-22T12:38:55.629Z,27.60
2023-01-22T12:41:45.530Z,20.87
2023-01-22T12:44:38.182Z,21.77
2023-01-22T12:47:16.472Z,16.47
2023-01-22T12:49:50.124Z,19.50
2023-01-22T12:52:32.144Z,29.90
2023-01-22T12:55:02.406Z,21.07
2023-01-22T12:57:41.782Z,23.23
2023-01-22T13:00:30.361Z,26.73
2023-01-22T13:02:59.881Z,18.97
2023-01-22T13:05:40.736Z,23.27
2023-01-22T13:08:26.719Z,27.57
2023-01-22T13:10:58.122Z,20.53
2023-01-22T13:13:32.750Z,22.93
2023-01-22T13:16:05.573Z,27.93
2023-01-22T13:18:40.676Z,19.40
2023-01-22T13:21:11.716Z,23.13
2023-01-22T13:23:43.652Z,17.90
2023-01-22T13:26:18.772Z,23.40
2023-01-22T13:28:53.458Z,23.20
2023-01-22T13:31:24.622Z,24.73
2023-01-22T13:34:01.017Z,18.90
2023-01-22T13:36:29.915Z,14.63
2023-01-22T13:39:00.694Z,30.47
2023-01-22T13:41:32.817Z,24.47
2023-01-22T13:44:02.579Z,17.93
2023-01-22T13:46:38.493Z,18.07
2023-01-22T13:49:12.222Z,25.17
2023-01-22T13:51:43.027Z,32.80
2023-01-22T13:54:20.688Z,24.20
2023-01-22T13:56:49.561Z,17.80
2023-01-22T13:59:23.794Z,25.80
2023-01-22T14:01:54.683Z,27.93
2023-01-22T14:04:29.520Z,23.40
2023-01-22T14:06:58.413Z,16.67
2023-01-22T14:09:29.072Z,21.53
2023-01-22T14:11:58.598Z,16.63
2023-01-22T14:14:27.963Z,19.50
2023-01-22T14:16:58.205Z,22.47
2023-01-22T14:19:29.222Z,20.97
2023-01-22T14:21:59.319Z,25.47
2023-01-22T14:24:28.195Z,26.10
2023-01-22T14:26:58.300Z,16.77
2023-01-22T14:29:28.426Z,21.97
2023-01-22T14:31:58.751Z,20.40
2023-01-22T14:34:27.845Z,18.33
2023-01-22T14:36:57.108Z,21.90
2023-01-22T14:39:31.535Z,20.63
2023-01-22T14:42:03.730Z,24.83
2023-01-22T14:44:32.749Z,24.50
2023-01-22T14:47:04.454Z,26.80
2023-01-22T14:49:34.892Z,21.77
2023-01-22T14:52:03.984Z,25.67
2023-01-22T14:54:32.747Z,20.57
2023-01-22T14:57:03.677Z,25.67
2023-01-22T14:59:32.545Z,23.13
2023-01-22T15:02:03.010Z,28.83
2023-01-22T15:04:31.918Z,21.50
2023-01-22T15:07:00.763Z,21.43
2023-01-22T15:09:29.668Z,22.70
2023-01-22T15:11:58.365Z,31.23
2023-01-22T15:14:27.345Z,21.50
2023-01-22T15:16:56.181Z,30.23
2023-01-22T15:19:26.780Z,32.20
2023-01-22T15:21:56.084Z,32.83
2023-01-22T15:24:26.799Z,23.00
2023-01-22T15:26:58.532Z,22.70
2023-01-22T15:29:27.548Z,25.77
2023-01-22T15:31:56.585Z,18.90
2023-01-22T15:34:26.999Z,22.27
2023-01-22T15:36:56.017Z,26.73
2023-01-22T15:39:24.901Z,31.97
2023-01-22T15:41:53.792Z,27.40
2023-01-22T15:44:22.699Z,36.63
2023-01-22T15:46:51.893Z,25.87
2023-01-22T15:49:20.823Z,29.17
2023-01-22T15:51:51.227Z,27.43
2023-01-22T15:54:20.474Z,30.90
2023-01-22T15:56:49.278Z,28.30
2023-01-22T15:59:20.935Z,34.00
2023-01-22T16:01:50.195Z,24.83
2023-01-22T16:04:18.949Z,33.13
2023-01-22T16:06:47.978Z,30.37
2023-01-22T16:09:23.180Z,44.77
2023-01-22T16:11:54.546Z,30.37
2023-01-22T16:14:23.488Z,30.77
2023-01-22T16:16:54.548Z,33.40
2023-01-22T16:19:23.579Z,28.40
2023-01-22T16:21:54.450Z,29.07
2023-01-22T16:24:26.155Z,27.70
2023-01-22T16:26:56.252Z,34.63
2023-01-22T16:29:25.108Z,104.40
2023-01-22T16:31:56.229Z,113.17
2023-01-22T16:34:25.231Z,34.63
2023-01-22T16:36:55.512Z,34.20
2023-01-22T16:39:26.032Z,42.73
2023-01-22T16:41:57.845Z,28.60
2023-01-22T16:44:27.418Z,23.80
2023-01-22T16:47:02.853Z,33.40
2023-01-22T16:49:33.941Z,34.33
2023-01-22T16:52:20.744Z,37.33
2023-01-22T16:54:52.086Z,30.47
2023-01-22T16:57:20.920Z,35.37
2023-01-22T16:59:49.938Z,39.40
2023-01-22T17:02:19.791Z,31.57
2023-01-22T17:04:50.528Z,48.63
2023-01-22T17:07:32.874Z,48.30
2023-01-22T17:10:05.586Z,48.87
2023-01-22T17:12:37.187Z,36.87
2023-01-22T17:15:07.279Z,26.77
2023-01-22T17:17:41.887Z,33.20
2023-01-22T17:20:12.354Z,44.23
2023-01-22T17:22:41.307Z,36.83
2023-01-22T17:25:14.990Z,34.90
2023-01-22T17:27:47.047Z,36.30
2023-01-22T17:30:16.639Z,34.10
2023-01-22T17:32:47.862Z,40.10
2023-01-22T17:35:20.553Z,38.37
2023-01-22T17:37:49.612Z,26.30
2023-01-22T17:40:20.166Z,24.77
2023-01-22T17:42:48.979Z,24.33
2023-01-22T17:45:18.976Z,31.57
2023-01-22T17:47:48.149Z,29.93
2023-01-22T17:50:17.963Z,25.07
2023-01-22T17:52:46.983Z,21.83
2023-01-22T17:55:16.116Z,29.47
2023-01-22T17:57:46.473Z,28.23
2023-01-22T18:00:17.698Z,28.10
2023-01-22T18:02:46.851Z,29.33
2023-01-22T18:05:16.318Z,32.43
2023-01-22T18:07:45.579Z,31.30
2023-01-22T18:10:15.686Z,43.13
2023-01-22T18:12:49.595Z,46.27
2023-01-22T18:15:19.759Z,31.43
2023-01-22T18:17:50.516Z,38.43
2023-01-22T18:20:19.677Z,46.97
2023-01-22T18:22:50.462Z,33.87
2023-01-22T18:25:21.251Z,42.93
2023-01-22T18:27:52.080Z,25.27
2023-01-22T18:30:20.986Z,29.40
2023-01-22T18:32:53.089Z,35.57
2023-01-22T18:35:28.056Z,36.20
2023-01-22T18:38:00.136Z,21.67
2023-01-22T18:40:32.681Z,24.90
2023-01-22T18:43:06.241Z,28.63
2023-01-22T18:45:36.395Z,28.57
2023-01-22T18:48:06.189Z,23.57
2023-01-22T18:50:35.540Z,32.07
2023-01-22T18:53:04.933Z,28.73
2023-01-22T18:55:37.117Z,41.43
2023-01-22T18:58:30.838Z,35.70
2023-01-22T19:01:01.460Z,38.00
2023-01-22T19:03:31.887Z,28.93
2023-01-22T19:06:00.938Z,29.87
2023-01-22T19:08:29.775Z,27.93
2023-01-22T19:11:08.806Z,26.27
2023-01-22T19:13:46.143Z,29.33
2023-01-22T19:16:18.365Z,24.27
2023-01-22T19:18:47.937Z,33.07
2023-01-22T19:21:20.707Z,26.17
2023-01-22T19:23:51.825Z,24.03
2023-01-22T19:26:26.919Z,21.47
2023-01-22T19:29:03.969Z,27.23
2023-01-22T19:31:36.587Z,30.77
2023-01-22T19:34:10.621Z,19.97
2023-01-22T19:36:40.130Z,32.40
2023-01-22T19:39:12.163Z,22.97
2023-01-22T19:41:49.807Z,25.97
2023-01-22T19:44:20.418Z,22.97
2023-01-22T19:46:49.646Z,20.90
2023-01-22T19:49:18.682Z,20.97
2023-01-22T19:51:47.506Z,23.97
2023-01-22T19:54:16.348Z,23.17
2023-01-22T19:56:45.987Z,21.87
2023-01-22T19:59:18.279Z,23.13
2023-01-22T20:01:51.346Z,30.43
2023-01-22T20:04:25.670Z,28.67
2023-01-22T20:06:57.970Z,26.57
2023-01-22T20:09:28.659Z,29.27
2023-01-22T20:12:01.547Z,25.53
2023-01-22T20:14:35.171Z,37.87
2023-01-22T20:17:08.698Z,32.07
2023-01-22T20:19:52.968Z,34.37
2023-01-22T20:22:26.219Z,24.30
2023-01-22T20:25:01.033Z,42.07
2023-01-22T20:27:33.747Z,38.50
2023-01-22T20:30:03.072Z,27.23
2023-01-22T20:32:36.982Z,26.80
2023-01-22T20:35:06.933Z,29.17
2023-01-22T20:37:38.003Z,34.17
2023-01-22T20:40:14.433Z,31.83
2023-01-22T20:42:43.887Z,33.27
2023-01-22T20:45:29.647Z,43.33
2023-01-22T20:48:06.927Z,29.43
2023-01-22T20:50:42.214Z,29.63
2023-01-22T20:53:24.724Z,29.90
2023-01-22T20:56:24.299Z,30.87
2023-01-22T20:58:58.627Z,26.53
2023-01-22T21:01:28.839Z,26.57
2023-01-22T21:04:02.837Z,22.67
2023-01-22T21:06:38.033Z,26.87
2023-01-22T21:09:08.960Z,25.37
2023-01-22T21:11:40.200Z,31.60
2023-01-22T21:14:17.489Z,33.67
2023-01-22T21:16:47.047Z,29.13
2023-01-22T21:19:30.085Z,23.87
2023-01-22T21:22:07.663Z,27.70
2023-01-22T21:24:38.685Z,30.17
2023-01-22T21:27:07.894Z,26.73
2023-01-22T21:29:43.278Z,27.87
2023-01-22T21:32:12.729Z,22.63
2023-01-22T21:34:44.344Z,27.77
2023-01-22T21:37:19.642Z,24.63
2023-01-22T21:39:48.781Z,29.47
2023-01-22T21:42:34.957Z,28.33
2023-01-22T21:45:21.560Z,26.73
2023-01-22T21:47:50.451Z,25.00
2023-01-22T21:50:21.474Z,35.00
2023-01-22T21:52:55.496Z,24.13
2023-01-22T21:55:24.509Z,25.90
2023-01-22T21:57:53.536Z,26.67
2023-01-22T22:00:22.987Z,28.17
2023-01-22T22:02:54.465Z,19.47
2023-01-22T22:05:25.440Z,23.60
2023-01-22T22:07:56.751Z,25.03
2023-01-22T22:10:28.513Z,25.93
2023-01-22T22:12:58.100Z,24.63
2023-01-22T22:15:27.544Z,26.30
2023-01-22T22:17:59.768Z,24.27
2023-01-22T22:20:34.023Z,20.73
2023-01-22T22:23:09.110Z,21.10
2023-01-22T22:25:38.324Z,28.33
2023-01-22T22:28:08.307Z,18.77
2023-01-22T22:30:37.519Z,36.03
2023-01-22T22:33:06.806Z,21.17
2023-01-22T22:35:37.359Z,26.67
2023-01-22T22:38:07.043Z,23.13
2023-01-22T22:40:36.564Z,18.40
2023-01-22T22:43:09.167Z,24.63
2023-01-22T22:45:41.079Z,28.77
2023-01-22T22:48:11.026Z,21.70
2023-01-22T22:50:43.394Z,29.57
2023-01-22T22:53:12.759Z,24.93
2023-01-22T22:55:42.484Z,29.97
2023-01-22T22:58:16.266Z,25.23
2023-01-22T23:00:47.782Z,23.53
2023-01-22T23:03:17.103Z,20.70
2023-01-22T23:05:47.664Z,25.00
2023-01-22T23:08:16.726Z,26.07
2023-01-22T23:10:45.695Z,20.33
2023-01-22T23:13:18.490Z,18.17
2023-01-22T23:15:47.388Z,20.27
2023-01-22T23:18:22.353Z,25.03
2023-01-22T23:20:55.342Z,21.47
2023-01-22T23:23:29.271Z,20.30
2023-01-22T23:25:58.610Z,19.00
2023-01-22T23:28:30.058Z,26.00
2023-01-22T23:31:06.626Z,23.40
2023-01-22T23:33:40.158Z,24.90
2023-01-22T23:36:13.658Z,23.73
2023-01-22T23:38:43.429Z,21.17
2023-01-22T23:41:14.738Z,22.13
2023-01-22T23:43:46.896Z,26.93
2023-01-22T23:46:18.178Z,20.00
2023-01-22T23:48:46.979Z,28.07
2023-01-22T23:51:18.092Z,23.43
2023-01-22T23:53:54.185Z,26.27
2023-01-22T23:56:25.979Z,25.53
2023-01-22T23:58:55.654Z,21.27
